Terminal Aerodrome Forecast
Issued by NWS

Home | Current Version | Previous Version | Text Only | Print | Product List | Glossary On
Versions: 1 2 3 4 5 6 7 8 9 10 11 12 13 14 15 16 17 18 19 20 21 22 23 24
000
FTUS46 KHNX 210540
TAFFAT
TAF
KFAT 210540Z 2106/2206 VRB04KT P6SM VCSH SCT050 BKN100
      TEMPO 2107/2111 6SM RA OVC050
     FM211100 31007KT P6SM BKN050
     FM220000 31004KT P6SM FEW050 SCT200=

USA.gov is the U.S. government's official web portal to all federal, state and local government web resources and services.